createdAt,value
2022-08-02T00:03:19.561Z,0.00
2022-08-02T00:08:19.488Z,0.00
2022-08-02T00:13:19.438Z,0.00
2022-08-02T00:18:19.377Z,0.00
2022-08-02T00:23:19.558Z,0.00
2022-08-02T00:28:26.920Z,0.00
2022-08-02T00:34:27.175Z,0.00
2022-08-02T00:38:20.090Z,0.00
2022-08-02T00:43:19.022Z,0.00
2022-08-02T00:48:18.974Z,0.00
2022-08-02T00:53:18.915Z,0.00
2022-08-02T00:58:18.854Z,0.00
2022-08-02T01:03:18.771Z,0.00
2022-08-02T01:13:04.600Z,0.00
2022-08-02T01:18:04.511Z,0.00
2022-08-02T01:23:04.445Z,0.00
2022-08-02T01:28:04.391Z,0.00
2022-08-02T01:33:04.321Z,0.00
2022-08-02T01:38:04.261Z,0.00
2022-08-02T01:43:04.760Z,0.00
2022-08-02T01:48:04.144Z,0.00
2022-08-02T01:53:04.054Z,0.00
2022-08-02T01:58:03.994Z,0.00
2022-08-02T02:03:03.925Z,0.00
2022-08-02T02:08:03.875Z,0.00
2022-08-02T02:13:03.803Z,0.00
2022-08-02T02:18:13.115Z,0.00
2022-08-02T02:23:04.676Z,0.00
2022-08-02T02:28:03.758Z,0.00
2022-08-02T02:33:03.689Z,0.00
2022-08-02T02:38:03.475Z,0.00
2022-08-02T02:43:03.389Z,0.00
2022-08-02T02:48:03.329Z,0.00
2022-08-02T02:53:03.281Z,0.00
2022-08-02T02:58:03.217Z,0.00
2022-08-02T03:03:04.330Z,0.00
2022-08-02T03:08:03.073Z,0.00
2022-08-02T03:13:02.990Z,0.00
2022-08-02T03:18:02.923Z,0.00
2022-08-02T03:23:02.851Z,5.62
2022-08-02T03:28:02.797Z,11.25
2022-08-02T03:33:02.731Z,11.25
2022-08-02T03:38:02.842Z,22.50
2022-08-02T03:43:02.613Z,50.62
2022-08-02T03:48:02.536Z,78.75
2022-08-02T03:53:03.497Z,112.50
2022-08-02T03:58:02.432Z,135.00
2022-08-02T04:03:02.325Z,146.25
2022-08-02T04:08:34.080Z,168.75
2022-08-02T04:13:03.202Z,247.50
2022-08-02T04:18:02.132Z,331.88
2022-08-02T04:23:02.076Z,337.50
2022-08-02T04:28:17.379Z,326.25
2022-08-02T04:33:02.995Z,478.12
2022-08-02T04:38:08.816Z,286.88
2022-08-02T04:43:02.825Z,281.25
2022-08-02T04:48:04.916Z,343.12
2022-08-02T04:53:01.712Z,281.25
2022-08-02T04:58:04.076Z,635.62
2022-08-02T05:03:02.564Z,618.75
2022-08-02T05:08:01.503Z,2131.88
2022-08-02T05:13:01.411Z,2227.50
2022-08-02T05:18:01.349Z,1951.88
2022-08-02T05:23:01.312Z,2424.38
2022-08-02T05:28:01.214Z,2795.62
2022-08-02T05:33:01.149Z,2739.38
2022-08-02T05:38:01.099Z,2750.62
2022-08-02T05:43:01.050Z,585.00
2022-08-02T05:48:01.162Z,573.75
2022-08-02T05:53:00.907Z,562.50
2022-08-02T05:58:00.854Z,556.88
2022-08-02T06:03:00.776Z,652.50
2022-08-02T06:08:00.704Z,967.50
2022-08-02T06:13:00.634Z,3571.88
2022-08-02T06:18:00.588Z,4089.38
2022-08-02T06:23:00.600Z,2705.62
2022-08-02T06:28:00.502Z,4488.75
2022-08-02T06:33:00.464Z,4438.12
2022-08-02T06:38:02.214Z,4680.00
2022-08-02T06:43:00.293Z,4083.75
2022-08-02T06:48:00.230Z,3515.62
2022-08-02T06:53:00.199Z,1485.00
2022-08-02T06:58:00.115Z,1940.62
2022-08-02T07:03:00.026Z,3588.75
2022-08-02T07:07:59.966Z,4230.00
2022-08-02T07:13:00.111Z,4578.75
2022-08-02T07:17:59.891Z,4106.25
2022-08-02T07:22:59.849Z,4516.88
2022-08-02T07:27:59.732Z,3875.62
2022-08-02T07:32:59.692Z,4055.62
2022-08-02T07:38:02.217Z,2801.25
2022-08-02T07:43:03.895Z,1389.38
2022-08-02T07:47:59.491Z,3645.00
2022-08-02T07:52:59.444Z,3380.62
2022-08-02T07:57:59.837Z,4899.38
2022-08-02T08:02:59.397Z,4696.88
2022-08-02T08:07:59.319Z,3830.62
2022-08-02T08:12:59.251Z,2176.88
2022-08-02T08:17:59.180Z,2289.38
2022-08-02T08:22:59.062Z,2486.25
2022-08-02T08:27:59.012Z,2480.62
2022-08-02T08:32:58.974Z,2328.75
2022-08-02T08:37:58.917Z,2683.12
2022-08-02T08:42:58.857Z,2407.50
2022-08-02T08:47:58.775Z,2205.00
2022-08-02T08:52:58.708Z,2193.75
2022-08-02T08:57:58.649Z,2244.38
2022-08-02T09:02:58.766Z,2064.38
2022-08-02T09:07:58.813Z,2278.12
2022-08-02T09:12:58.476Z,1040.62
2022-08-02T09:17:58.399Z,945.00
2022-08-02T09:22:58.339Z,855.00
2022-08-02T09:27:58.289Z,770.62
2022-08-02T09:32:58.219Z,815.62
2022-08-02T09:37:59.181Z,798.75
2022-08-02T09:42:58.081Z,770.62
2022-08-02T09:47:58.023Z,725.62
2022-08-02T09:52:57.994Z,691.88
2022-08-02T09:57:57.906Z,691.88
2022-08-02T10:02:57.847Z,714.38
2022-08-02T10:07:57.983Z,720.00
2022-08-02T10:12:57.698Z,686.25
2022-08-02T10:17:57.704Z,663.75
2022-08-02T10:22:57.600Z,658.12
2022-08-02T10:28:05.135Z,635.62
2022-08-02T10:32:58.452Z,669.38
2022-08-02T10:37:57.435Z,691.88
2022-08-02T10:42:57.353Z,646.88
2022-08-02T10:47:57.264Z,618.75
2022-08-02T10:52:57.214Z,573.75
2022-08-02T10:57:57.126Z,573.75
2022-08-02T11:02:57.057Z,573.75
2022-08-02T11:07:57.049Z,579.38
2022-08-02T11:12:56.983Z,579.38
2022-08-02T11:17:56.910Z,579.38
2022-08-02T11:22:56.852Z,607.50
2022-08-02T11:27:57.012Z,675.00
2022-08-02T11:32:56.706Z,703.12
2022-08-02T11:37:56.622Z,630.00
2022-08-02T11:42:56.556Z,618.75
2022-08-02T11:47:56.491Z,573.75
2022-08-02T11:52:56.450Z,556.88
2022-08-02T11:58:01.720Z,528.75
2022-08-02T12:02:57.402Z,506.25
2022-08-02T12:07:56.239Z,500.62
2022-08-02T12:12:56.180Z,517.50
2022-08-02T12:17:56.294Z,500.62
2022-08-02T12:22:56.053Z,360.00
2022-08-02T12:27:56.015Z,495.00
2022-08-02T12:32:55.937Z,495.00
2022-08-02T12:37:55.907Z,455.62
2022-08-02T12:42:55.827Z,450.00
2022-08-02T12:47:55.727Z,315.00
2022-08-02T12:52:55.661Z,444.38
2022-08-02T12:57:55.601Z,466.88
2022-08-02T13:02:55.541Z,444.38
2022-08-02T13:07:55.483Z,483.75
2022-08-02T13:12:55.440Z,472.50
2022-08-02T13:17:55.345Z,472.50
2022-08-02T13:22:55.447Z,365.62
2022-08-02T13:27:56.230Z,489.38
2022-08-02T13:32:59.184Z,466.88
2022-08-02T13:37:56.121Z,478.12
2022-08-02T13:42:55.033Z,455.62
2022-08-02T13:48:03.785Z,315.00
2022-08-02T13:52:55.907Z,354.38
2022-08-02T13:57:54.849Z,511.88
2022-08-02T14:02:54.774Z,455.62
2022-08-02T14:07:54.756Z,466.88
2022-08-02T14:12:56.453Z,399.38
2022-08-02T14:17:54.595Z,365.62
2022-08-02T14:22:54.817Z,354.38
2022-08-02T14:27:54.520Z,326.25
2022-08-02T14:32:54.391Z,371.25
2022-08-02T14:37:54.332Z,354.38
2022-08-02T14:42:54.285Z,466.88
2022-08-02T14:47:54.217Z,455.62
2022-08-02T14:52:54.135Z,438.75
2022-08-02T14:57:54.088Z,360.00
2022-08-02T15:02:54.016Z,320.62
2022-08-02T15:07:53.979Z,326.25
2022-08-02T15:12:53.893Z,331.88
2022-08-02T15:17:53.862Z,410.62
2022-08-02T15:22:53.762Z,388.12
2022-08-02T15:27:53.692Z,376.88
2022-08-02T15:32:53.913Z,399.38
2022-08-02T15:37:53.576Z,376.88
2022-08-02T15:42:53.507Z,365.62
2022-08-02T15:47:53.478Z,371.25
2022-08-02T15:52:53.367Z,376.88
2022-08-02T15:57:53.330Z,382.50
2022-08-02T16:02:53.266Z,382.50
2022-08-02T16:07:53.221Z,360.00
2022-08-02T16:12:53.166Z,348.75
2022-08-02T16:17:54.410Z,337.50
2022-08-02T16:22:53.143Z,320.62
2022-08-02T16:27:59.402Z,292.50
2022-08-02T16:32:53.875Z,292.50
2022-08-02T16:37:53.026Z,298.12
2022-08-02T16:42:52.769Z,303.75
2022-08-02T16:47:56.551Z,286.88
2022-08-02T16:52:53.646Z,286.88
2022-08-02T16:57:52.572Z,275.62
2022-08-02T17:02:52.533Z,264.38
2022-08-02T17:08:15.167Z,258.75
2022-08-02T17:12:53.365Z,247.50
2022-08-02T17:17:52.355Z,230.62
2022-08-02T17:22:52.236Z,213.75
2022-08-02T17:27:55.690Z,185.62
2022-08-02T17:32:52.148Z,157.50
2022-08-02T17:37:54.790Z,146.25
2022-08-02T17:42:53.180Z,135.00
2022-08-02T17:48:03.753Z,129.38
2022-08-02T17:52:53.300Z,129.38
2022-08-02T17:57:58.286Z,118.12
2022-08-02T18:02:55.524Z,101.25
2022-08-02T18:07:56.709Z,84.38
2022-08-02T18:12:52.686Z,73.12
2022-08-02T18:17:51.556Z,61.88
2022-08-02T18:22:55.748Z,50.62
2022-08-02T18:27:52.440Z,39.38
2022-08-02T18:33:58.191Z,28.12
2022-08-02T18:37:57.253Z,16.88
2022-08-02T18:42:52.242Z,11.25
2022-08-02T18:47:51.432Z,11.25
2022-08-02T18:52:51.110Z,11.25
2022-08-02T18:58:18.039Z,5.62
2022-08-02T19:02:51.962Z,5.62
2022-08-02T19:07:52.895Z,0.00
2022-08-02T19:12:51.626Z,0.00
2022-08-02T19:17:54.865Z,0.00
2022-08-02T19:22:53.542Z,0.00
2022-08-02T19:27:50.689Z,0.00
2022-08-02T19:32:59.461Z,0.00
2022-08-02T19:37:51.574Z,0.00
2022-08-02T19:44:23.315Z,0.00
2022-08-02T19:47:54.465Z,0.00
2022-08-02T19:52:52.892Z,0.00
2022-08-02T19:57:50.274Z,0.00
2022-08-02T20:02:50.284Z,0.00
2022-08-02T20:07:56.045Z,0.00
2022-08-02T20:12:51.075Z,0.00
2022-08-02T20:17:50.087Z,0.00
2022-08-02T20:22:49.948Z,0.00
2022-08-02T20:27:51.220Z,0.00
2022-08-02T20:32:53.066Z,0.00
2022-08-02T20:37:59.926Z,0.00
2022-08-02T20:42:50.677Z,0.00
2022-08-02T20:47:51.103Z,0.00
2022-08-02T20:52:49.871Z,0.00
2022-08-02T20:58:00.872Z,0.00
2022-08-02T21:02:50.517Z,0.00
2022-08-02T21:07:53.431Z,0.00
2022-08-02T21:12:50.268Z,0.00
2022-08-02T21:17:53.473Z,0.00
2022-08-02T21:22:50.135Z,0.00
2022-08-02T21:27:53.412Z,0.00
2022-08-02T21:32:49.002Z,0.00
2022-08-02T21:37:48.946Z,0.00
2022-08-02T21:42:49.869Z,0.00
2022-08-02T21:47:48.801Z,0.00
2022-08-02T21:52:52.417Z,0.00
2022-08-02T21:57:48.831Z,0.00
2022-08-02T22:02:48.693Z,0.00
2022-08-02T22:07:48.555Z,0.00
2022-08-02T22:12:48.467Z,0.00
2022-08-02T22:17:53.541Z,0.00
2022-08-02T22:22:50.384Z,0.00
2022-08-02T22:28:15.793Z,0.00
2022-08-02T22:32:49.218Z,0.00
2022-08-02T22:38:16.536Z,0.00
2022-08-02T22:42:49.097Z,0.00
2022-08-02T22:47:51.166Z,0.00
2022-08-02T22:52:50.454Z,0.00
2022-08-02T23:02:49.032Z,0.00
2022-08-02T23:07:47.762Z,0.00
2022-08-02T23:12:47.712Z,0.00
2022-08-02T23:17:47.633Z,0.00
2022-08-02T23:22:47.581Z,0.00
2022-08-02T23:27:50.280Z,0.00
2022-08-02T23:32:47.640Z,0.00
2022-08-02T23:37:59.760Z,0.00
2022-08-02T23:42:48.305Z,0.00
2022-08-02T23:47:47.278Z,0.00
2022-08-02T23:52:47.196Z,0.00
2022-08-02T23:57:47.106Z,0.00
